createdAt,value
2022-12-25T00:01:52.937Z,9.30
2022-12-25T00:04:55.079Z,8.95
2022-12-25T00:07:57.153Z,8.43
2022-12-25T00:11:01.187Z,9.23
2022-12-25T00:14:03.493Z,8.93
2022-12-25T00:17:08.113Z,14.15
2022-12-25T00:20:10.782Z,11.30
2022-12-25T00:23:12.877Z,11.38
2022-12-25T00:26:16.865Z,10.63
2022-12-25T00:29:19.115Z,10.60
2022-12-25T00:32:21.188Z,9.30
2022-12-25T00:35:23.297Z,9.00
2022-12-25T00:38:25.706Z,9.18
2022-12-25T00:41:46.307Z,8.77
2022-12-25T00:44:49.733Z,9.07
2022-12-25T00:47:51.835Z,9.48
2022-12-25T00:50:56.341Z,9.70
2022-12-25T00:53:58.487Z,10.23
2022-12-25T00:57:00.626Z,10.18
2022-12-25T01:00:04.068Z,10.07
2022-12-25T01:03:06.390Z,10.88
2022-12-25T01:06:11.256Z,9.73
2022-12-25T01:09:31.948Z,10.23
2022-12-25T01:12:37.104Z,9.93
2022-12-25T01:15:39.275Z,10.43
2022-12-25T01:18:41.988Z,12.05
2022-12-25T01:21:44.098Z,12.02
2022-12-25T01:24:46.304Z,11.20
2022-12-25T01:27:48.509Z,11.18
2022-12-25T01:30:50.822Z,10.85
2022-12-25T01:33:53.198Z,11.20
2022-12-25T01:36:55.354Z,11.25
2022-12-25T01:39:57.483Z,10.80
2022-12-25T01:42:59.559Z,11.25
2022-12-25T01:46:03.968Z,12.63
2022-12-25T01:49:13.893Z,11.77
2022-12-25T01:55:27.903Z,10.43
2022-12-25T01:58:31.921Z,10.68
2022-12-25T02:01:34.444Z,10.43
2022-12-25T02:04:42.181Z,10.88
2022-12-25T02:07:46.556Z,11.05
2022-12-25T02:10:48.874Z,11.02
2022-12-25T02:13:51.265Z,10.85
2022-12-25T02:17:03.887Z,10.65
2022-12-25T02:20:11.259Z,10.18
2022-12-25T02:23:32.129Z,10.23
2022-12-25T02:26:52.669Z,10.77
2022-12-25T02:30:05.676Z,11.43
2022-12-25T02:33:34.989Z,11.05
2022-12-25T02:37:02.616Z,10.70
2022-12-25T02:40:25.516Z,11.30
2022-12-25T02:43:48.672Z,11.38
2022-12-25T02:47:11.147Z,11.75
2022-12-25T02:50:48.332Z,11.90
2022-12-25T02:54:12.196Z,12.85
2022-12-25T02:57:37.205Z,12.85
2022-12-25T03:01:06.145Z,12.82
2022-12-25T03:04:34.503Z,12.82
2022-12-25T03:07:40.986Z,12.77
2022-12-25T03:11:07.286Z,12.95
2022-12-25T03:14:28.005Z,13.07
2022-12-25T03:17:32.549Z,12.40
2022-12-25T03:20:53.404Z,12.73
2022-12-25T03:24:19.368Z,13.20
2022-12-25T03:27:21.448Z,11.50
2022-12-25T03:30:55.086Z,11.98
2022-12-25T03:34:27.859Z,11.85
2022-12-25T03:38:19.551Z,12.05
2022-12-25T03:42:13.844Z,12.20
2022-12-25T03:45:44.427Z,12.75
2022-12-25T03:49:14.119Z,14.20
2022-12-25T03:52:38.188Z,13.90
2022-12-25T03:56:00.341Z,14.40
2022-12-25T03:59:23.927Z,14.18
2022-12-25T04:02:44.891Z,12.45
2022-12-25T04:06:05.645Z,12.25
2022-12-25T04:09:26.646Z,12.18
2022-12-25T04:12:47.185Z,11.70
2022-12-25T04:16:07.972Z,11.55
2022-12-25T04:19:28.946Z,11.90
2022-12-25T04:22:50.333Z,13.35
2022-12-25T04:26:10.730Z,12.85
2022-12-25T04:29:31.341Z,14.18
2022-12-25T04:32:51.861Z,15.27
2022-12-25T04:36:09.257Z,15.70
2022-12-25T04:39:11.629Z,14.82
2022-12-25T04:42:13.820Z,15.25
2022-12-25T04:45:15.904Z,13.73
2022-12-25T04:48:17.995Z,13.77
2022-12-25T04:51:22.969Z,15.07
2022-12-25T04:54:25.155Z,15.13
2022-12-25T04:57:27.174Z,15.57
2022-12-25T05:00:31.912Z,16.45
2022-12-25T05:03:34.609Z,16.33
2022-12-25T05:06:36.930Z,16.38
2022-12-25T05:09:41.799Z,16.92
2022-12-25T05:12:44.077Z,17.20
2022-12-25T05:15:46.238Z,18.48
2022-12-25T05:18:49.719Z,17.52
2022-12-25T05:21:57.679Z,17.85
2022-12-25T05:24:59.783Z,17.48
2022-12-25T05:28:01.840Z,18.23
2022-12-25T05:31:04.068Z,18.38
2022-12-25T05:34:06.258Z,18.42
2022-12-25T05:37:08.325Z,17.35
2022-12-25T05:40:10.945Z,17.63
2022-12-25T05:43:13.059Z,18.00
2022-12-25T05:46:15.356Z,18.73
2022-12-25T05:49:17.484Z,20.35
2022-12-25T05:52:19.596Z,30.38
2022-12-25T05:55:21.630Z,25.67
2022-12-25T05:58:23.779Z,23.55
2022-12-25T06:01:28.188Z,41.83
2022-12-25T06:04:30.559Z,40.05
2022-12-25T06:07:36.447Z,37.35
2022-12-25T06:10:38.572Z,39.70
2022-12-25T06:13:40.888Z,34.15
2022-12-25T06:16:43.299Z,32.67
2022-12-25T06:19:45.697Z,33.65
2022-12-25T06:22:47.948Z,39.35
2022-12-25T06:25:50.168Z,54.35
2022-12-25T06:28:53.513Z,48.95
2022-12-25T06:31:57.392Z,47.08
2022-12-25T06:34:59.697Z,48.47
2022-12-25T06:38:01.904Z,52.33
2022-12-25T06:41:09.854Z,43.60
2022-12-25T06:44:11.962Z,27.63
2022-12-25T06:47:14.033Z,27.50
2022-12-25T06:50:16.191Z,23.80
2022-12-25T06:53:18.281Z,23.08
2022-12-25T06:56:24.316Z,25.55
2022-12-25T06:59:27.008Z,25.58
2022-12-25T07:02:29.498Z,27.52
2022-12-25T07:05:31.584Z,29.48
2022-12-25T07:08:33.770Z,23.77
2022-12-25T07:11:36.126Z,30.33
2022-12-25T07:14:38.224Z,25.23
2022-12-25T07:17:40.387Z,32.03
2022-12-25T07:20:42.524Z,31.17
2022-12-25T07:23:46.181Z,30.20
2022-12-25T07:26:48.919Z,29.42
2022-12-25T07:29:51.047Z,30.73
2022-12-25T07:32:53.201Z,31.88
2022-12-25T07:35:55.369Z,30.48
2022-12-25T07:38:57.563Z,33.47
2022-12-25T07:42:00.358Z,35.05
2022-12-25T07:45:03.605Z,45.28
2022-12-25T07:48:09.472Z,48.28
2022-12-25T07:51:16.414Z,40.10
2022-12-25T07:54:18.685Z,42.95
2022-12-25T07:57:20.772Z,37.50
2022-12-25T08:00:22.920Z,33.95
2022-12-25T08:03:25.455Z,28.33
2022-12-25T08:06:31.241Z,28.08
2022-12-25T08:09:35.054Z,30.08
2022-12-25T08:12:37.121Z,29.95
2022-12-25T08:15:40.345Z,28.30
2022-12-25T08:18:43.403Z,29.42
2022-12-25T08:21:45.720Z,41.95
2022-12-25T08:24:47.759Z,32.58
2022-12-25T08:27:49.871Z,32.60
2022-12-25T08:30:52.081Z,35.83
2022-12-25T08:33:57.409Z,35.13
2022-12-25T08:36:59.459Z,36.92
2022-12-25T08:40:01.614Z,35.40
2022-12-25T08:43:04.557Z,33.08
2022-12-25T08:46:07.851Z,33.13
2022-12-25T08:49:10.122Z,34.20
2022-12-25T08:52:12.287Z,31.75
2022-12-25T08:55:15.029Z,45.83
2022-12-25T08:58:17.206Z,51.10
2022-12-25T09:01:19.684Z,57.72
2022-12-25T09:04:22.073Z,59.28
2022-12-25T09:07:24.238Z,62.95
2022-12-25T09:10:26.400Z,56.28
2022-12-25T09:13:29.610Z,54.85
2022-12-25T09:16:31.949Z,57.42
2022-12-25T09:19:34.356Z,56.65
2022-12-25T09:22:36.852Z,54.13
2022-12-25T09:25:39.079Z,59.25
2022-12-25T09:28:46.617Z,59.60
2022-12-25T09:31:52.546Z,59.08
2022-12-25T09:34:54.701Z,59.45
2022-12-25T09:37:56.791Z,59.83
2022-12-25T09:41:13.198Z,61.47
2022-12-25T09:44:23.007Z,60.60
2022-12-25T09:50:37.744Z,59.17
2022-12-25T09:53:45.913Z,59.90
2022-12-25T09:56:48.063Z,58.78
2022-12-25T09:59:54.124Z,56.75
2022-12-25T10:03:24.305Z,56.08
2022-12-25T10:06:45.152Z,55.00
2022-12-25T10:09:53.346Z,55.75
2022-12-25T10:13:24.812Z,53.15
2022-12-25T10:16:45.695Z,52.70
2022-12-25T10:19:59.360Z,51.15
2022-12-25T10:23:06.135Z,50.88
2022-12-25T10:26:18.942Z,49.60
2022-12-25T10:29:21.295Z,45.17
2022-12-25T10:32:23.873Z,41.70
2022-12-25T10:35:28.713Z,41.65
2022-12-25T10:38:30.832Z,41.75
2022-12-25T10:41:58.782Z,39.25
2022-12-25T10:45:03.510Z,39.05
2022-12-25T10:48:07.707Z,36.88
2022-12-25T10:51:10.238Z,35.10
2022-12-25T10:54:27.518Z,32.50
2022-12-25T10:57:29.862Z,31.55
2022-12-25T11:00:32.867Z,31.20
2022-12-25T11:03:40.595Z,30.05
2022-12-25T11:06:43.157Z,28.95
2022-12-25T11:10:02.741Z,26.58
2022-12-25T11:13:16.781Z,27.88
2022-12-25T11:16:36.565Z,26.70
2022-12-25T11:19:38.900Z,24.13
2022-12-25T11:22:45.622Z,24.38
2022-12-25T11:26:02.874Z,23.95
2022-12-25T11:29:14.199Z,34.78
2022-12-25T11:32:47.856Z,23.27
2022-12-25T11:35:55.727Z,23.85
2022-12-25T11:39:05.222Z,29.02
2022-12-25T11:45:36.583Z,20.08
2022-12-25T11:49:05.117Z,21.77
2022-12-25T11:52:10.175Z,20.33
2022-12-25T11:55:21.819Z,22.08
2022-12-25T11:58:31.982Z,20.98
2022-12-25T12:02:05.848Z,29.60
2022-12-25T12:05:18.878Z,50.08
2022-12-25T12:08:20.976Z,24.67
2022-12-25T12:11:41.341Z,29.23
2022-12-25T12:15:08.266Z,20.80
2022-12-25T12:18:22.304Z,20.50
2022-12-25T12:21:25.881Z,19.70
2022-12-25T12:24:39.188Z,18.83
2022-12-25T12:27:42.007Z,19.40
2022-12-25T12:30:44.139Z,19.23
2022-12-25T12:33:57.278Z,18.50
2022-12-25T12:37:06.509Z,16.55
2022-12-25T12:40:24.355Z,15.85
2022-12-25T12:43:35.598Z,15.48
2022-12-25T12:46:38.764Z,15.30
2022-12-25T12:49:41.200Z,14.48
2022-12-25T12:52:43.480Z,13.80
2022-12-25T12:55:45.807Z,12.52
2022-12-25T12:58:51.071Z,12.05
2022-12-25T13:02:28.229Z,10.18
2022-12-25T13:05:46.186Z,9.68
2022-12-25T13:09:04.133Z,10.25
2022-12-25T13:12:12.914Z,13.68
2022-12-25T13:15:15.619Z,22.10
2022-12-25T13:18:18.399Z,17.25
2022-12-25T13:21:30.487Z,25.98
2022-12-25T13:24:36.240Z,18.77
2022-12-25T13:27:38.292Z,18.30
2022-12-25T13:30:40.403Z,11.55
2022-12-25T13:34:05.266Z,11.27
2022-12-25T13:37:14.964Z,12.00
2022-12-25T13:43:29.900Z,14.15
2022-12-25T13:46:31.946Z,16.27
2022-12-25T13:49:36.439Z,12.38
2022-12-25T13:52:39.204Z,11.30
2022-12-25T13:55:43.983Z,11.63
2022-12-25T13:58:48.601Z,12.45
2022-12-25T14:01:52.135Z,12.07
2022-12-25T14:04:54.603Z,14.68
2022-12-25T14:08:01.785Z,13.07
2022-12-25T14:11:06.281Z,21.85
2022-12-25T14:14:18.217Z,16.90
2022-12-25T14:17:21.471Z,33.75
2022-12-25T14:20:35.229Z,29.75
2022-12-25T14:23:45.928Z,32.97
2022-12-25T14:26:48.121Z,23.50
2022-12-25T14:29:53.163Z,23.40
2022-12-25T14:32:55.993Z,12.52
2022-12-25T14:35:59.393Z,27.00
2022-12-25T14:39:05.314Z,30.17
2022-12-25T14:42:22.505Z,24.40
2022-12-25T14:45:34.686Z,14.55
2022-12-25T14:48:36.972Z,12.85
2022-12-25T14:51:39.385Z,21.30
2022-12-25T14:54:56.572Z,18.38
2022-12-25T14:58:07.761Z,14.70
2022-12-25T15:01:23.437Z,32.38
2022-12-25T15:04:27.444Z,25.50
2022-12-25T15:07:31.373Z,13.57
2022-12-25T15:13:56.557Z,11.30
2022-12-25T15:17:00.670Z,11.82
2022-12-25T15:20:04.130Z,11.57
2022-12-25T15:23:20.451Z,12.35
2022-12-25T15:26:22.939Z,12.38
2022-12-25T15:29:52.134Z,12.65
2022-12-25T15:32:47.388Z,12.15
2022-12-25T15:35:49.573Z,12.95
2022-12-25T15:38:52.209Z,12.45
2022-12-25T15:42:12.736Z,13.15
2022-12-25T15:45:24.266Z,12.15
2022-12-25T15:48:26.455Z,11.82
2022-12-25T15:51:28.741Z,12.48
2022-12-25T15:54:31.689Z,11.30
2022-12-25T15:57:35.187Z,11.68
2022-12-25T16:00:37.434Z,11.60
2022-12-25T16:03:39.797Z,11.05
2022-12-25T16:06:41.942Z,11.80
2022-12-25T16:09:44.667Z,12.23
2022-12-25T16:12:47.180Z,13.23
2022-12-25T16:15:49.370Z,14.93
2022-12-25T16:18:51.556Z,22.55
2022-12-25T16:21:53.913Z,18.15
2022-12-25T16:24:57.641Z,18.17
2022-12-25T16:27:59.808Z,19.33
2022-12-25T16:31:01.927Z,24.45
2022-12-25T16:34:05.239Z,23.98
2022-12-25T16:37:07.644Z,24.38
2022-12-25T16:40:10.307Z,78.97
2022-12-25T16:43:12.454Z,53.42
2022-12-25T16:46:18.093Z,38.53
2022-12-25T16:49:20.696Z,20.17
2022-12-25T16:52:22.993Z,16.30
2022-12-25T16:55:29.728Z,20.38
2022-12-25T16:58:32.427Z,18.60
2022-12-25T17:01:34.673Z,15.40
2022-12-25T17:04:36.829Z,17.00
2022-12-25T17:07:39.432Z,16.70
2022-12-25T17:10:42.485Z,16.65
2022-12-25T17:13:48.089Z,20.67
2022-12-25T17:16:50.307Z,19.20
2022-12-25T17:19:52.513Z,17.70
2022-12-25T17:22:54.612Z,17.42
2022-12-25T17:26:01.194Z,18.30
2022-12-25T17:29:04.186Z,19.23
2022-12-25T17:32:10.781Z,19.15
2022-12-25T17:35:12.976Z,24.33
2022-12-25T17:38:15.069Z,31.55
2022-12-25T17:41:19.289Z,26.02
2022-12-25T17:44:21.824Z,30.90
2022-12-25T17:47:23.889Z,27.52
2022-12-25T17:50:26.008Z,23.80
2022-12-25T17:53:28.387Z,29.35
2022-12-25T17:56:31.311Z,27.98
2022-12-25T17:59:33.550Z,28.13
2022-12-25T18:02:35.778Z,30.58
2022-12-25T18:05:38.112Z,31.95
2022-12-25T18:08:41.485Z,31.90
2022-12-25T18:11:43.975Z,32.72
2022-12-25T18:14:46.114Z,29.17
2022-12-25T18:17:48.218Z,27.13
2022-12-25T18:20:52.685Z,26.15
2022-12-25T18:23:54.826Z,25.55
2022-12-25T18:26:56.972Z,23.38
2022-12-25T18:29:59.124Z,25.73
2022-12-25T18:33:01.452Z,24.05
2022-12-25T18:36:04.917Z,25.42
2022-12-25T18:39:07.140Z,26.35
2022-12-25T18:42:28.291Z,27.60
2022-12-25T18:45:30.602Z,31.13
2022-12-25T18:48:35.829Z,26.58
2022-12-25T18:51:37.943Z,26.42
2022-12-25T18:54:40.172Z,39.97
2022-12-25T18:57:42.233Z,30.10
2022-12-25T19:00:44.650Z,39.03
2022-12-25T19:03:49.043Z,26.27
2022-12-25T19:06:52.028Z,27.90
2022-12-25T19:09:54.393Z,27.77
2022-12-25T19:12:56.615Z,27.85
2022-12-25T19:15:59.657Z,28.15
2022-12-25T19:19:03.229Z,27.95
2022-12-25T19:22:06.166Z,26.42
2022-12-25T19:25:08.646Z,27.33
2022-12-25T19:28:11.060Z,26.42
2022-12-25T19:31:15.034Z,27.73
2022-12-25T19:34:17.487Z,27.25
2022-12-25T19:37:19.786Z,28.15
2022-12-25T19:40:22.763Z,28.08
2022-12-25T19:43:24.986Z,28.35
2022-12-25T19:46:31.572Z,27.98
2022-12-25T19:49:33.953Z,26.95
2022-12-25T19:52:36.368Z,28.55
2022-12-25T19:55:38.578Z,27.70
2022-12-25T19:58:41.518Z,27.40
2022-12-25T20:01:44.425Z,28.33
2022-12-25T20:04:46.912Z,29.83
2022-12-25T20:07:49.104Z,28.75
2022-12-25T20:10:51.856Z,28.83
2022-12-25T20:13:55.239Z,28.70
2022-12-25T20:16:57.746Z,28.48
2022-12-25T20:19:59.917Z,27.92
2022-12-25T20:23:02.019Z,40.55
2022-12-25T20:26:05.475Z,29.50
2022-12-25T20:29:07.801Z,27.85
2022-12-25T20:32:10.085Z,27.83
2022-12-25T20:35:16.234Z,26.70
2022-12-25T20:38:18.523Z,25.83
2022-12-25T20:41:27.539Z,26.17
2022-12-25T20:44:30.767Z,25.33
2022-12-25T20:47:34.062Z,25.50
2022-12-25T20:50:36.275Z,25.85
2022-12-25T20:53:39.051Z,27.50
2022-12-25T20:56:41.657Z,27.00
2022-12-25T20:59:44.006Z,27.73
2022-12-25T21:02:46.316Z,29.15
2022-12-25T21:05:53.494Z,28.70
2022-12-25T21:08:56.032Z,28.45
2022-12-25T21:11:58.195Z,29.15
2022-12-25T21:15:00.769Z,29.90
2022-12-25T21:18:03.843Z,30.55
2022-12-25T21:21:07.789Z,31.52
2022-12-25T21:24:10.907Z,30.42
2022-12-25T21:27:12.960Z,27.98
2022-12-25T21:30:16.099Z,25.63
2022-12-25T21:33:36.845Z,29.05
2022-12-25T21:36:41.318Z,26.67
2022-12-25T21:39:43.622Z,24.63
2022-12-25T21:42:46.083Z,24.27
2022-12-25T21:45:48.185Z,27.75
2022-12-25T21:48:50.595Z,36.22
2022-12-25T21:52:10.986Z,29.98
2022-12-25T21:58:15.050Z,27.95
2022-12-25T22:01:17.463Z,29.63
2022-12-25T22:04:21.865Z,31.10
2022-12-25T22:07:23.965Z,35.45
2022-12-25T22:10:26.153Z,37.30
2022-12-25T22:13:46.902Z,37.88
2022-12-25T22:17:07.804Z,37.83
2022-12-25T22:20:13.128Z,36.78
2022-12-25T22:23:16.303Z,37.40
2022-12-25T22:26:20.977Z,38.10
2022-12-25T22:29:23.337Z,36.20
2022-12-25T22:32:25.516Z,36.83
2022-12-25T22:35:27.620Z,34.22
2022-12-25T22:38:29.939Z,34.35
2022-12-25T22:41:33.879Z,34.08
2022-12-25T22:44:36.643Z,35.90
2022-12-25T22:47:39.016Z,35.05
2022-12-25T22:50:41.851Z,34.78
2022-12-25T22:53:43.995Z,35.50
2022-12-25T22:56:48.822Z,35.22
2022-12-25T22:59:53.074Z,36.65
2022-12-25T23:02:55.339Z,36.17
2022-12-25T23:05:57.617Z,36.45
2022-12-25T23:09:00.016Z,36.10
2022-12-25T23:12:02.178Z,36.97
2022-12-25T23:15:04.589Z,38.00
2022-12-25T23:18:25.399Z,37.80
2022-12-25T23:21:47.097Z,37.42
2022-12-25T23:25:07.809Z,35.92
2022-12-25T23:28:09.949Z,38.08
2022-12-25T23:31:14.088Z,39.00
2022-12-25T23:34:16.261Z,39.60
2022-12-25T23:37:19.160Z,40.63
2022-12-25T23:40:22.007Z,39.50
2022-12-25T23:43:24.337Z,40.35
2022-12-25T23:46:26.648Z,41.55
2022-12-25T23:49:29.087Z,40.50
2022-12-25T23:52:31.174Z,40.50
2022-12-25T23:55:34.393Z,41.53
2022-12-25T23:58:36.794Z,42.05
